Time;durP1;ratioP1;P1;durP2;ratioP2;P2;SDS_P1;SDS_P2;PMS_P1;PMS_P2;Temp;Humidity;BMP_temperature;BMP_pressure;BME280_temperature;BME280_humidity;BME280_pressure;Samples;Min_cycle;Max_cycle;Signal;HPM_P1;HPM_P2
2022/09/30 00:02:03;;;;;;;16.23;14.98;;;;;;;-141.48;100.00;69781.59;5206277;28;20076;-78
2022/09/30 00:04:33;;;;;;;17.05;15.85;;;;;;;-141.48;100.00;69781.59;5206454;28;20022;-78
2022/09/30 00:07:03;;;;;;;15.77;14.68;;;;;;;-141.48;100.00;69781.59;5206610;28;20028;-78
2022/09/30 00:09:34;;;;;;;17.67;16.10;;;;;;;-141.48;100.00;69781.59;5206440;28;20052;-78
2022/09/30 00:12:04;;;;;;;14.63;13.52;;;;;;;-141.48;100.00;69781.59;5205431;28;20021;-79
2022/09/30 00:14:35;;;;;;;16.90;15.20;;;;;;;-141.48;100.00;69781.59;5203931;28;20033;-78
2022/09/30 00:17:05;;;;;;;14.27;13.38;;;;;;;-141.48;100.00;69781.59;5205484;28;20033;-78
2022/09/30 00:19:36;;;;;;;15.02;14.13;;;;;;;-141.48;100.00;69781.59;5243187;22;20464;-69
2022/09/30 00:22:06;;;;;;;16.17;14.93;;;;;;;-141.48;100.00;69781.59;5225824;28;20390;-69
2022/09/30 00:24:37;;;;;;;13.95;13.15;;;;;;;-141.48;100.00;69781.59;5225683;28;20029;-71
2022/09/30 00:27:07;;;;;;;14.75;13.55;;;;;;;-141.48;100.00;69781.59;5226946;28;20027;-70
2022/09/30 00:29:38;;;;;;;16.05;15.02;;;;;;;-141.48;100.00;69781.59;5225516;28;20082;-70
2022/09/30 00:32:08;;;;;;;16.73;15.43;;;;;;;-141.48;100.00;69781.59;5225828;28;20028;-68
2022/09/30 00:34:39;;;;;;;14.70;13.50;;;;;;;-141.48;100.00;69781.59;5225328;28;20396;-69
2022/09/30 00:37:13;;;;;;;14.52;13.45;;;;;;;-141.48;100.00;69781.59;5225419;28;20399;-68
2022/09/30 00:39:44;;;;;;;15.15;13.95;;;;;;;-141.48;100.00;69781.59;5224884;28;20048;-70
2022/09/30 00:42:14;;;;;;;16.05;14.95;;;;;;;-141.48;100.00;69781.59;5225472;28;20362;-69
2022/09/30 00:44:51;;;;;;;16.20;15.10;;;;;;;-141.48;100.00;69781.59;5224989;28;20024;-69
2022/09/30 00:47:40;;;;;;;15.82;14.77;;;;;;;-141.48;100.00;69781.59;5225122;28;20124;-69
2022/09/30 00:50:28;;;;;;;16.13;15.02;;;;;;;-141.48;100.00;69781.59;5224762;28;20033;-71
2022/09/30 00:53:11;;;;;;;15.82;14.82;;;;;;;-141.48;100.00;69781.59;5225030;28;20578;-69
2022/09/30 00:55:47;;;;;;;18.88;17.15;;;;;;;-141.48;100.00;69781.59;5225042;28;20124;-68
2022/09/30 00:58:28;;;;;;;18.30;16.98;;;;;;;-141.48;100.00;69781.59;5225302;28;20527;-69
2022/09/30 01:01:00;;;;;;;16.55;15.35;;;;;;;-141.48;100.00;69781.59;5225334;28;20025;-70
2022/09/30 01:03:35;;;;;;;16.48;15.38;;;;;;;-141.48;100.00;69781.59;5224731;28;20440;-69
2022/09/30 01:06:06;;;;;;;16.83;15.45;;;;;;;-141.48;100.00;69781.59;5224172;28;20060;-69
2022/09/30 01:08:38;;;;;;;17.65;15.90;;;;;;;-141.48;100.00;69781.59;5224717;28;20401;-70
2022/09/30 01:11:09;;;;;;;15.98;14.48;;;;;;;-141.48;100.00;69781.59;5225181;28;20021;-68
2022/09/30 01:13:43;;;;;;;14.95;13.85;;;;;;;-141.48;100.00;69781.59;5225877;28;20033;-71
2022/09/30 01:16:19;;;;;;;16.85;15.65;;;;;;;-141.48;100.00;69781.59;5224875;28;20099;-68
2022/09/30 01:19:19;;;;;;;16.70;15.60;;;;;;;-141.48;100.00;69781.59;5224452;28;20082;-71
2022/09/30 01:22:06;;;;;;;16.20;15.05;;;;;;;-141.48;100.00;69781.59;5155499;28;20481;-69
2022/09/30 01:25:04;;;;;;;17.45;15.95;;;;;;;-141.48;100.00;69781.59;5224193;28;20017;-68
2022/09/30 01:28:06;;;;;;;15.57;14.48;;;;;;;-141.48;100.00;69781.59;5224802;28;20025;-69
2022/09/30 01:30:53;;;;;;;16.98;15.50;;;;;;;-141.48;100.00;69781.59;5223937;28;20524;-69
2022/09/30 01:33:44;;;;;;;15.00;14.07;;;;;;;-141.48;100.00;69781.59;5225327;28;20541;-68
2022/09/30 01:36:25;;;;;;;14.13;12.88;;;;;;;-141.48;100.00;69781.59;5224611;28;20033;-70
2022/09/30 01:39:30;;;;;;;16.98;15.88;;;;;;;-141.48;100.00;69781.59;5224595;28;20177;-68
2022/09/30 01:42:30;;;;;;;15.10;13.98;;;;;;;-141.48;100.00;69781.59;5224637;28;20173;-68
2022/09/30 01:45:25;;;;;;;15.63;14.50;;;;;;;-141.48;100.00;69781.59;5224141;28;20056;-69
2022/09/30 01:47:57;;;;;;;16.23;15.05;;;;;;;-141.48;100.00;69781.59;5224481;28;20021;-68
2022/09/30 01:50:40;;;;;;;15.35;14.18;;;;;;;-141.48;100.00;69781.59;5224257;28;20054;-69
2022/09/30 01:53:44;;;;;;;17.60;16.20;;;;;;;-141.48;100.00;69781.59;5228415;28;20075;-68
2022/09/30 01:56:41;;;;;;;15.80;14.50;;;;;;;-141.48;100.00;69781.59;5228265;28;20021;-69
2022/09/30 01:59:21;;;;;;;15.48;14.20;;;;;;;-141.48;100.00;69781.59;5219263;28;20131;-68
2022/09/30 02:01:57;;;;;;;17.35;16.05;;;;;;;-141.48;100.00;69781.59;5228427;28;20025;-69
2022/09/30 02:04:35;;;;;;;16.00;14.77;;;;;;;-141.48;100.00;69781.59;5229414;28;20241;-68
2022/09/30 02:07:23;;;;;;;16.65;15.55;;;;;;;-141.48;100.00;69781.59;5227935;28;20021;-69
2022/09/30 02:10:02;;;;;;;17.92;16.65;;;;;;;-141.48;100.00;69781.59;5228286;28;20082;-69
2022/09/30 02:12:39;;;;;;;15.80;14.82;;;;;;;-141.48;100.00;69781.59;5227789;28;20510;-68
2022/09/30 02:15:15;;;;;;;16.95;15.75;;;;;;;-141.48;100.00;69781.59;5228223;28;20037;-69
2022/09/30 02:17:51;;;;;;;14.80;13.90;;;;;;;-141.48;100.00;69781.59;5228166;28;20078;-69
2022/09/30 02:20:26;;;;;;;15.55;14.38;;;;;;;-141.48;100.00;69781.59;5228147;28;20028;-69
2022/09/30 02:23:09;;;;;;;17.48;15.65;;;;;;;-141.48;100.00;69781.59;5227898;28;20021;-69
2022/09/30 02:25:44;;;;;;;16.83;15.40;;;;;;;-141.48;100.00;69781.59;5227963;28;20149;-69
2022/09/30 02:28:21;;;;;;;18.77;17.50;;;;;;;-141.48;100.00;69781.59;5229082;28;20128;-69
2022/09/30 02:30:56;;;;;;;17.02;15.70;;;;;;;-141.48;100.00;69781.59;5227933;28;20025;-71
2022/09/30 02:33:40;;;;;;;15.55;14.27;;;;;;;-141.48;100.00;69781.59;5227595;28;20036;-69
2022/09/30 02:36:27;;;;;;;19.00;17.70;;;;;;;-141.48;100.00;69781.59;5227914;28;20064;-69
2022/09/30 02:39:14;;;;;;;17.58;16.08;;;;;;;-141.48;100.00;69781.59;5229334;28;20359;-68
2022/09/30 02:41:52;;;;;;;15.63;14.00;;;;;;;-141.48;100.00;69781.59;5228959;28;20028;-68
2022/09/30 02:44:23;;;;;;;15.30;14.30;;;;;;;-141.48;100.00;69781.59;5227447;28;20033;-69
2022/09/30 02:47:10;;;;;;;19.85;16.08;;;;;;;-141.48;100.00;69781.59;5227585;28;20091;-68
2022/09/30 02:49:50;;;;;;;18.35;16.67;;;;;;;-141.48;100.00;69781.59;5229216;28;20323;-69
2022/09/30 02:52:29;;;;;;;18.65;17.13;;;;;;;-141.48;100.00;69781.59;5228620;28;20075;-71
2022/09/30 02:55:15;;;;;;;18.80;17.35;;;;;;;-141.48;100.00;69781.59;5227162;28;20037;-70
2022/09/30 02:58:07;;;;;;;17.77;16.58;;;;;;;-141.48;100.00;69781.59;5227384;28;20032;-70
2022/09/30 03:00:38;;;;;;;19.73;18.20;;;;;;;-141.48;100.00;69781.59;5226987;28;20099;-69
2022/09/30 03:03:19;;;;;;;16.50;15.38;;;;;;;-141.48;100.00;69781.59;5226109;28;20500;-69
2022/09/30 03:05:50;;;;;;;18.52;17.23;;;;;;;-141.48;100.00;69781.59;5228159;28;20196;-68
2022/09/30 03:08:20;;;;;;;19.85;18.25;;;;;;;-141.48;100.00;69781.59;5227233;28;20524;-72
2022/09/30 03:10:51;;;;;;;19.15;17.85;;;;;;;-141.48;100.00;69781.59;5226679;28;20028;-69
2022/09/30 03:13:25;;;;;;;20.67;19.05;;;;;;;-141.48;100.00;69781.59;5226838;28;20467;-69
2022/09/30 03:16:27;;;;;;;20.88;19.25;;;;;;;-141.48;100.00;69781.59;5226895;28;20558;-68
2022/09/30 03:19:16;;;;;;;17.98;16.77;;;;;;;-141.48;100.00;69781.59;5226928;28;20098;-70
2022/09/30 03:21:52;;;;;;;18.15;16.60;;;;;;;-141.48;100.00;69781.59;5226920;28;20025;-69
2022/09/30 03:24:54;;;;;;;19.33;17.95;;;;;;;-141.48;100.00;69781.59;5226587;28;20036;-72
2022/09/30 03:27:31;;;;;;;21.05;19.00;;;;;;;-141.48;100.00;69781.59;5226753;28;20215;-69
2022/09/30 03:30:05;;;;;;;19.98;18.50;;;;;;;-141.48;100.00;69781.59;5226951;28;20024;-67
2022/09/30 03:32:35;;;;;;;20.63;19.13;;;;;;;-141.48;100.00;69781.59;5226779;28;20024;-68
2022/09/30 03:35:26;;;;;;;18.38;17.20;;;;;;;-141.48;100.00;69781.59;5226066;28;20094;-68
2022/09/30 03:38:28;;;;;;;19.85;18.05;;;;;;;-141.48;100.00;69781.59;5226471;28;20527;-68
2022/09/30 03:41:07;;;;;;;19.85;18.45;;;;;;;-141.48;100.00;69781.59;5226969;28;20031;-67
2022/09/30 03:43:48;;;;;;;18.10;16.65;;;;;;;-141.48;100.00;69781.59;5226439;28;20470;-70
2022/09/30 03:46:47;;;;;;;18.90;17.23;;;;;;;-141.48;100.00;69781.59;5226515;28;20399;-67
2022/09/30 03:49:31;;;;;;;19.05;17.73;;;;;;;-141.48;100.00;69781.59;5227931;28;20033;-69
2022/09/30 03:52:08;;;;;;;21.33;18.73;;;;;;;-141.48;100.00;69781.59;5227761;28;20052;-68
2022/09/30 03:54:51;;;;;;;17.92;16.73;;;;;;;-141.48;100.00;69781.59;5227384;28;20052;-69
2022/09/30 03:57:22;;;;;;;20.55;19.13;;;;;;;-141.48;100.00;69781.59;5226284;28;20513;-68
2022/09/30 03:59:53;;;;;;;20.05;18.70;;;;;;;-141.48;100.00;69781.59;5226175;28;20067;-69
2022/09/30 04:02:25;;;;;;;20.25;18.58;;;;;;;-141.48;100.00;69781.59;5225679;28;20028;-68
2022/09/30 04:04:56;;;;;;;20.75;19.05;;;;;;;-141.48;100.00;69781.59;5225924;28;20020;-68
2022/09/30 04:07:26;;;;;;;21.88;19.60;;;;;;;-141.48;100.00;69781.59;5226062;28;20507;-68
2022/09/30 04:09:57;;;;;;;21.08;19.60;;;;;;;-141.48;100.00;69781.59;5225622;28;20028;-68
2022/09/30 04:12:27;;;;;;;21.17;19.63;;;;;;;-141.48;100.00;69781.59;5225114;28;20020;-68
2022/09/30 04:14:57;;;;;;;19.42;18.00;;;;;;;-141.48;100.00;69781.59;5224407;28;20041;-69
2022/09/30 04:17:28;;;;;;;18.95;17.40;;;;;;;-141.48;100.00;69781.59;5227137;28;20044;-68
2022/09/30 04:19:58;;;;;;;22.05;20.52;;;;;;;-141.48;100.00;69781.59;5225681;28;20032;-68
2022/09/30 04:22:29;;;;;;;21.33;19.27;;;;;;;-141.48;100.00;69781.59;5225826;28;20048;-66
2022/09/30 04:24:59;;;;;;;18.42;17.23;;;;;;;-141.48;100.00;69781.59;5226599;28;20094;-68
2022/09/30 04:27:30;;;;;;;21.77;20.23;;;;;;;-141.48;100.00;69781.59;5225803;28;20028;-71
2022/09/30 04:30:00;;;;;;;21.00;19.60;;;;;;;-141.48;100.00;69781.59;5225722;28;20024;-70
2022/09/30 04:32:31;;;;;;;22.63;20.85;;;;;;;-141.48;100.00;69781.59;5227174;28;20017;-68
2022/09/30 04:35:01;;;;;;;24.00;21.67;;;;;;;-141.48;100.00;69781.59;5224768;28;20039;-68
2022/09/30 04:37:32;;;;;;;23.02;21.08;;;;;;;-141.48;100.00;69781.59;5225169;28;20029;-68
2022/09/30 04:40:03;;;;;;;23.73;22.02;;;;;;;-141.48;100.00;69781.59;5225102;28;20036;-67
2022/09/30 04:42:33;;;;;;;21.27;19.45;;;;;;;-141.48;100.00;69781.59;5225063;28;20111;-69
2022/09/30 04:45:05;;;;;;;20.40;18.83;;;;;;;-141.48;100.00;69781.59;5225114;28;20167;-68
2022/09/30 04:47:35;;;;;;;22.42;20.60;;;;;;;-141.48;100.00;69781.59;5225282;28;20025;-69
2022/09/30 04:50:06;;;;;;;19.23;17.55;;;;;;;-141.48;100.00;69781.59;5224845;28;20025;-68
2022/09/30 04:52:37;;;;;;;22.52;20.80;;;;;;;-141.48;100.00;69781.59;5225182;28;20016;-68
2022/09/30 04:55:08;;;;;;;19.52;18.00;;;;;;;-141.48;100.00;69781.59;5224641;28;20268;-68
2022/09/30 04:57:43;;;;;;;22.80;21.05;;;;;;;-141.48;100.00;69781.59;5225157;28;20032;-67
2022/09/30 05:00:13;;;;;;;23.33;21.80;;;;;;;-141.48;100.00;69781.59;5224906;28;20485;-67
2022/09/30 05:02:47;;;;;;;23.73;21.75;;;;;;;-141.48;100.00;69781.59;5225061;28;20021;-67
2022/09/30 05:05:18;;;;;;;22.13;19.88;;;;;;;-141.48;100.00;69781.59;5224607;28;20131;-68
2022/09/30 05:07:51;;;;;;;21.80;20.15;;;;;;;-141.48;100.00;69781.59;5224996;28;20123;-67
2022/09/30 05:10:22;;;;;;;20.30;18.55;;;;;;;-141.48;100.00;69781.59;5224944;28;20025;-68
2022/09/30 05:12:52;;;;;;;19.98;18.73;;;;;;;-141.48;100.00;69781.59;5224888;28;20366;-67
2022/09/30 05:15:24;;;;;;;19.27;17.88;;;;;;;-141.48;100.00;69781.59;5224158;28;20411;-69
2022/09/30 05:17:54;;;;;;;21.88;20.17;;;;;;;-141.48;100.00;69781.59;5224648;28;20028;-69
2022/09/30 05:20:25;;;;;;;19.17;17.55;;;;;;;-141.48;100.00;69781.59;5224604;28;20036;-66
2022/09/30 05:22:55;;;;;;;21.02;18.90;;;;;;;-141.48;100.00;69781.59;5224703;28;20028;-68
2022/09/30 05:25:26;;;;;;;19.73;18.33;;;;;;;-141.48;100.00;69781.59;5224402;28;20040;-67
2022/09/30 05:27:56;;;;;;;19.83;18.33;;;;;;;-141.48;100.00;69781.59;5224540;28;20025;-68
2022/09/30 05:30:27;;;;;;;20.75;19.13;;;;;;;-141.48;100.00;69781.59;5224288;28;20033;-68
2022/09/30 05:32:58;;;;;;;19.30;17.52;;;;;;;-141.48;100.00;69781.59;5224431;28;20473;-71
2022/09/30 05:35:28;;;;;;;21.48;19.83;;;;;;;-141.48;100.00;69781.59;5224310;28;20032;-69
2022/09/30 05:37:59;;;;;;;19.65;18.08;;;;;;;-141.48;100.00;69781.59;5224382;28;20025;-69
2022/09/30 05:40:30;;;;;;;20.52;18.92;;;;;;;-141.48;100.00;69781.59;5224384;28;20559;-68
2022/09/30 05:43:01;;;;;;;19.73;18.13;;;;;;;-141.48;100.00;69781.59;5224208;28;20017;-67
2022/09/30 05:45:32;;;;;;;21.30;19.55;;;;;;;-141.48;100.00;69781.59;5224075;28;20056;-69
2022/09/30 05:48:02;;;;;;;22.73;20.92;;;;;;;-141.48;100.00;69781.59;5224719;28;20029;-68
2022/09/30 05:50:33;;;;;;;22.20;20.52;;;;;;;-141.48;100.00;69781.59;5224312;28;20039;-69
2022/09/30 05:53:04;;;;;;;20.80;19.20;;;;;;;-141.48;100.00;69781.59;5224179;28;20023;-69
2022/09/30 05:55:34;;;;;;;28.27;20.98;;;;;;;-141.48;100.00;69781.59;5224406;28;20022;-69
2022/09/30 05:58:05;;;;;;;20.95;19.10;;;;;;;-141.48;100.00;69781.59;5223853;28;20021;-70
2022/09/30 06:00:39;;;;;;;22.65;20.63;;;;;;;-141.48;100.00;69781.59;5224195;28;20507;-71
2022/09/30 06:03:10;;;;;;;35.10;22.67;;;;;;;-141.48;100.00;69781.59;5225840;28;20024;-72
2022/09/30 06:05:40;;;;;;;23.70;21.88;;;;;;;-141.48;100.00;69781.59;5218412;28;20086;-69
2022/09/30 06:08:17;;;;;;;23.10;21.17;;;;;;;-141.48;100.00;69781.59;5196996;28;20029;-70
2022/09/30 06:10:47;;;;;;;24.45;22.05;;;;;;;-141.48;100.00;69781.59;5204271;28;20124;-69
2022/09/30 06:13:20;;;;;;;25.00;23.02;;;;;;;-141.48;100.00;69781.59;5203375;28;20088;-69
2022/09/30 06:15:58;;;;;;;25.25;23.52;;;;;;;-141.48;100.00;69781.59;5202681;28;20133;-71
2022/09/30 06:18:29;;;;;;;25.27;23.40;;;;;;;-141.48;100.00;69781.59;5203132;28;20033;-70
2022/09/30 06:21:02;;;;;;;22.38;20.52;;;;;;;-141.48;100.00;69781.59;5203863;28;20501;-68
2022/09/30 06:23:33;;;;;;;23.58;21.20;;;;;;;-141.48;100.00;69781.59;5203059;28;20091;-73
2022/09/30 06:26:07;;;;;;;29.15;22.08;;;;;;;-141.48;100.00;69781.59;5203308;28;20052;-67
2022/09/30 06:28:38;;;;;;;26.63;24.52;;;;;;;-141.48;100.00;69781.59;5203235;28;20060;-70
2022/09/30 06:31:08;;;;;;;24.65;22.75;;;;;;;-141.48;100.00;69781.59;5202880;28;20037;-67
2022/09/30 06:33:39;;;;;;;27.70;25.17;;;;;;;-141.48;100.00;69781.59;5203384;28;20025;-68
2022/09/30 06:36:10;;;;;;;28.73;26.52;;;;;;;-141.48;100.00;69781.59;5203360;28;20100;-68
2022/09/30 06:38:40;;;;;;;27.52;25.15;;;;;;;-141.48;100.00;69781.59;5205117;28;20048;-69
2022/09/30 06:41:11;;;;;;;26.70;24.08;;;;;;;-141.48;100.00;69781.59;5207009;28;20082;-67
2022/09/30 06:43:41;;;;;;;28.55;26.27;;;;;;;-141.48;100.00;69781.59;5205595;28;20032;-67
2022/09/30 06:46:12;;;;;;;26.83;23.80;;;;;;;-141.48;100.00;69781.59;5215776;28;20036;-68
2022/09/30 06:48:42;;;;;;;27.80;25.58;;;;;;;-141.48;100.00;69781.59;5206743;28;20021;-67
2022/09/30 06:51:13;;;;;;;25.98;24.13;;;;;;;-141.48;100.00;69781.59;5206607;28;20029;-66
2022/09/30 06:53:43;;;;;;;27.70;25.73;;;;;;;-141.48;100.00;69781.59;5215390;28;20283;-66
2022/09/30 06:56:17;;;;;;;26.42;24.38;;;;;;;-141.48;100.00;69781.59;5227123;28;20028;-65
2022/09/30 06:58:47;;;;;;;25.85;23.88;;;;;;;-141.48;100.00;69781.59;5227515;28;20116;-66
2022/09/30 07:01:19;;;;;;;28.80;26.25;;;;;;;-141.48;100.00;69781.59;5228544;28;20107;-66
2022/09/30 07:03:55;;;;;;;32.45;29.48;;;;;;;-141.48;100.00;69781.59;5227109;28;20108;-65
2022/09/30 07:06:25;;;;;;;30.65;28.17;;;;;;;-141.48;100.00;69781.59;5226229;28;20447;-66
2022/09/30 07:08:56;;;;;;;29.50;26.70;;;;;;;-141.48;100.00;69781.59;5227363;28;20025;-66
2022/09/30 07:11:26;;;;;;;34.60;31.60;;;;;;;-141.48;100.00;69781.59;5226737;28;20516;-65
2022/09/30 07:13:57;;;;;;;34.40;31.48;;;;;;;-141.48;100.00;69781.59;5226637;28;20032;-65
2022/09/30 07:16:28;;;;;;;30.60;27.73;;;;;;;-141.48;100.00;69781.59;5226916;28;20027;-66
2022/09/30 07:19:03;;;;;;;31.40;28.48;;;;;;;-141.48;100.00;69781.59;5206109;28;20508;-64
2022/09/30 07:21:34;;;;;;;34.40;31.15;;;;;;;-141.48;100.00;69781.59;5206294;28;20021;-67
2022/09/30 07:24:04;;;;;;;31.33;28.85;;;;;;;-141.48;100.00;69781.59;5221975;28;20401;-67
2022/09/30 07:26:35;;;;;;;36.38;33.25;;;;;;;-141.48;100.00;69781.59;5221476;28;20074;-66
2022/09/30 07:29:06;;;;;;;36.45;33.25;;;;;;;-141.48;100.00;69781.59;5192944;28;20026;-67
2022/09/30 07:31:36;;;;;;;32.70;29.75;;;;;;;-141.48;100.00;69781.59;5205152;28;20559;-66
2022/09/30 07:34:08;;;;;;;42.92;38.90;;;;;;;-141.48;100.00;69781.59;5205749;28;20029;-68
2022/09/30 07:36:40;;;;;;;34.78;31.92;;;;;;;-141.48;100.00;69781.59;5202575;28;20021;-70
2022/09/30 07:39:11;;;;;;;33.15;30.25;;;;;;;-141.48;100.00;69781.59;5204941;28;20048;-70
2022/09/30 07:41:44;;;;;;;38.58;34.95;;;;;;;-141.48;100.00;69781.59;5205151;28;20441;-69
2022/09/30 07:44:14;;;;;;;37.08;34.05;;;;;;;-141.48;100.00;69781.59;5203281;28;20025;-67
2022/09/30 07:46:45;;;;;;;36.80;33.67;;;;;;;-141.48;100.00;69781.59;5206290;28;20120;-67
2022/09/30 07:49:24;;;;;;;42.67;37.17;;;;;;;-141.48;100.00;69781.59;5206973;28;20022;-68
2022/09/30 07:51:58;;;;;;;36.60;33.45;;;;;;;-141.48;100.00;69781.59;5205807;28;20017;-67
2022/09/30 07:54:31;;;;;;;40.47;37.17;;;;;;;-141.48;100.00;69781.59;5205628;28;20156;-68
2022/09/30 07:57:03;;;;;;;41.17;37.60;;;;;;;-141.48;100.00;69781.59;5205826;28;20022;-66
2022/09/30 07:59:37;;;;;;;40.92;36.95;;;;;;;-141.48;100.00;69781.59;5205698;28;20067;-67
2022/09/30 08:02:13;;;;;;;40.35;36.95;;;;;;;-141.48;100.00;69781.59;5203558;28;20128;-68
2022/09/30 08:04:44;;;;;;;38.38;35.05;;;;;;;-141.48;100.00;69781.59;5205028;28;20760;-68
2022/09/30 08:07:16;;;;;;;42.70;38.10;;;;;;;-141.48;100.00;69781.59;5204808;28;20029;-67
2022/09/30 08:09:47;;;;;;;43.03;39.05;;;;;;;-141.48;100.00;69781.59;5206519;28;20108;-68
2022/09/30 08:12:17;;;;;;;38.13;34.08;;;;;;;-141.48;100.00;69781.59;5205835;28;20521;-67
2022/09/30 08:14:48;;;;;;;39.20;35.70;;;;;;;-141.48;100.00;69781.59;5204617;28;20041;-67
2022/09/30 08:17:18;;;;;;;42.85;39.03;;;;;;;-141.48;100.00;69781.59;5205045;28;20371;-68
2022/09/30 08:19:48;;;;;;;39.47;35.17;;;;;;;-141.48;100.00;69781.59;5204946;28;20029;-67
2022/09/30 08:22:19;;;;;;;39.05;35.40;;;;;;;-141.48;100.00;69781.59;5205535;28;20394;-68
2022/09/30 08:24:50;;;;;;;40.17;36.58;;;;;;;-141.48;100.00;69781.59;5202717;28;20029;-67
2022/09/30 08:27:20;;;;;;;41.72;36.75;;;;;;;-141.48;100.00;69781.59;5205026;28;20549;-68
2022/09/30 08:29:51;;;;;;;38.22;34.88;;;;;;;-141.48;100.00;69781.59;5204509;28;20610;-67
2022/09/30 08:32:21;;;;;;;35.47;32.47;;;;;;;-141.48;100.00;69781.59;5204665;28;20017;-67
2022/09/30 08:34:52;;;;;;;33.00;30.10;;;;;;;-141.48;100.00;69781.59;5204170;28;20045;-68
2022/09/30 08:37:23;;;;;;;34.63;31.73;;;;;;;-141.48;100.00;69781.59;5204627;28;20437;-67
2022/09/30 08:39:53;;;;;;;37.40;33.85;;;;;;;-141.48;100.00;69781.59;5203956;28;20059;-67
2022/09/30 08:42:33;;;;;;;35.10;31.88;;;;;;;-141.48;100.00;69781.59;5204860;28;20030;-67
2022/09/30 08:45:42;;;;;;;32.97;29.90;;;;;;;-141.48;100.00;69781.59;5204586;28;20040;-67
2022/09/30 08:48:27;;;;;;;30.48;27.88;;;;;;;-141.48;100.00;69781.59;5202287;28;20029;-69
2022/09/30 08:51:14;;;;;;;30.65;27.98;;;;;;;-141.48;100.00;69781.59;5202801;28;20037;-69
2022/09/30 08:53:46;;;;;;;29.77;27.35;;;;;;;-141.48;100.00;69781.59;5204888;28;20029;-69
2022/09/30 08:56:26;;;;;;;29.20;26.67;;;;;;;-141.48;100.00;69781.59;5205193;28;20055;-70
2022/09/30 08:59:14;;;;;;;30.52;28.08;;;;;;;-141.48;100.00;69781.59;5204763;28;20116;-69
2022/09/30 09:01:50;;;;;;;28.17;25.83;;;;;;;-141.48;100.00;69781.59;5204038;28;20386;-69
2022/09/30 09:04:20;;;;;;;27.98;25.58;;;;;;;-141.48;100.00;69781.59;5203427;28;20029;-71
2022/09/30 09:07:07;;;;;;;26.65;24.10;;;;;;;-141.48;100.00;69781.59;5203974;28;20544;-70
2022/09/30 09:09:55;;;;;;;25.50;23.42;;;;;;;-141.48;100.00;69781.59;5204249;28;20029;-71
2022/09/30 09:12:40;;;;;;;24.98;22.80;;;;;;;-141.48;100.00;69781.59;5204482;28;20055;-70
2022/09/30 09:15:36;;;;;;;22.25;20.13;;;;;;;-141.48;100.00;69781.59;5203421;28;20571;-71
2022/09/30 09:18:28;;;;;;;22.45;20.02;;;;;;;-141.48;100.00;69781.59;5203989;28;20120;-69
2022/09/30 09:21:16;;;;;;;21.95;19.98;;;;;;;-141.48;100.00;69781.59;5203825;28;20032;-69
2022/09/30 09:23:49;;;;;;;19.17;17.60;;;;;;;-141.48;100.00;69781.59;5203534;28;20501;-69
2022/09/30 09:26:22;;;;;;;19.92;18.23;;;;;;;-141.48;100.00;69781.59;5204032;28;20170;-69
2022/09/30 09:29:07;;;;;;;19.55;17.88;;;;;;;-141.48;100.00;69781.59;5204159;28;20025;-69
2022/09/30 09:31:37;;;;;;;18.60;16.98;;;;;;;-141.48;100.00;69781.59;5204865;28;20505;-72
2022/09/30 09:34:10;;;;;;;16.50;15.00;;;;;;;-141.48;100.00;69781.59;5203199;28;20037;-69
2022/09/30 09:36:59;;;;;;;15.57;14.27;;;;;;;-141.48;100.00;69781.59;5203764;28;20036;-70
2022/09/30 09:39:55;;;;;;;16.48;14.45;;;;;;;-141.48;100.00;69781.59;5205309;28;20029;-70
2022/09/30 09:42:41;;;;;;;14.52;13.43;;;;;;;-141.48;100.00;69781.59;5187063;28;20026;-70
2022/09/30 09:45:31;;;;;;;14.30;13.02;;;;;;;-141.48;100.00;69781.59;5202561;28;20032;-70
2022/09/30 09:48:01;;;;;;;15.43;14.27;;;;;;;-141.48;100.00;69781.59;5184663;28;20770;-70
2022/09/30 09:51:18;;;;;;;13.35;12.35;;;;;;;-141.48;100.00;69781.59;5201268;28;20072;-70
2022/09/30 09:53:56;;;;;;;13.23;12.35;;;;;;;-141.48;100.00;69781.59;5145622;28;20566;-69
2022/09/30 09:56:32;;;;;;;15.65;12.48;;;;;;;-141.48;100.00;69781.59;5196760;28;20037;-68
2022/09/30 09:59:12;;;;;;;13.50;12.52;;;;;;;-141.48;100.00;69781.59;5203911;28;20021;-69
2022/09/30 10:01:49;;;;;;;11.52;10.73;;;;;;;-141.48;100.00;69781.59;5203065;28;20696;-69
2022/09/30 10:04:24;;;;;;;15.18;11.02;;;;;;;-141.48;100.00;69781.59;5199161;28;20095;-69
2022/09/30 10:06:59;;;;;;;11.88;10.88;;;;;;;-141.48;100.00;69781.59;5199309;28;20493;-69
2022/09/30 10:09:35;;;;;;;11.23;10.25;;;;;;;-141.48;100.00;69781.59;5190322;28;20017;-69
2022/09/30 10:12:06;;;;;;;11.15;10.35;;;;;;;-141.48;100.00;69781.59;5203286;28;20033;-69
2022/09/30 10:14:56;;;;;;;10.98;10.27;;;;;;;-141.48;100.00;69781.59;5197538;28;20030;-70
2022/09/30 10:17:31;;;;;;;12.75;10.50;;;;;;;-141.48;100.00;69781.59;5187320;28;20026;-70
2022/09/30 10:20:13;;;;;;;10.23;9.23;;;;;;;-141.48;100.00;69781.59;5186327;28;20167;-70
2022/09/30 10:22:43;;;;;;;10.68;9.57;;;;;;;-141.48;100.00;69781.59;5186773;28;20501;-69
2022/09/30 10:25:14;;;;;;;9.60;8.63;;;;;;;-141.48;100.00;69781.59;5187230;28;20030;-66
2022/09/30 10:27:56;;;;;;;10.70;9.60;;;;;;;-141.48;100.00;69781.59;5186319;28;20026;-66
2022/09/30 10:30:48;;;;;;;8.93;8.23;;;;;;;-141.48;100.00;69781.59;5186278;28;20512;-67
2022/09/30 10:33:24;;;;;;;8.15;7.55;;;;;;;-141.48;100.00;69781.59;5219813;28;20025;-72
2022/09/30 10:36:01;;;;;;;8.35;7.65;;;;;;;-141.48;100.00;69781.59;5227834;28;20497;-69
2022/09/30 10:38:33;;;;;;;6.53;6.00;;;;;;;-141.48;100.00;69781.59;5227662;28;20029;-67
2022/09/30 10:41:04;;;;;;;6.55;5.15;;;;;;;-141.48;100.00;69781.59;5227757;28;20116;-67
2022/09/30 10:43:43;;;;;;;5.00;4.63;;;;;;;-141.48;100.00;69781.59;5227332;28;20028;-68
2022/09/30 10:46:25;;;;;;;9.45;6.05;;;;;;;-141.48;100.00;69781.59;5227876;28;20021;-68
2022/09/30 10:48:57;;;;;;;12.13;6.45;;;;;;;-141.48;100.00;69781.59;5227848;28;20039;-68
2022/09/30 10:51:35;;;;;;;5.40;4.90;;;;;;;-141.48;100.00;69781.59;5208511;28;20021;-68
2022/09/30 10:54:05;;;;;;;5.55;5.05;;;;;;;-141.48;100.00;69781.59;5202641;28;20043;-69
2022/09/30 10:56:45;;;;;;;6.82;5.88;;;;;;;-141.48;100.00;69781.59;5202372;28;20116;-69
2022/09/30 10:59:30;;;;;;;4.57;4.18;;;;;;;-141.48;100.00;69781.59;5202607;28;20025;-67
2022/09/30 11:02:26;;;;;;;4.10;3.70;;;;;;;-141.48;100.00;69781.59;5190377;28;20013;-68
2022/09/30 11:05:21;;;;;;;3.47;3.28;;;;;;;-141.48;100.00;69781.59;5211043;28;20036;-68
2022/09/30 11:08:04;;;;;;;4.97;3.13;;;;;;;-141.48;100.00;69781.59;5219537;28;20014;-68
2022/09/30 11:11:09;;;;;;;3.20;2.90;;;;;;;-141.48;100.00;69781.59;5205499;28;20029;-68
2022/09/30 11:13:55;;;;;;;2.83;2.67;;;;;;;-141.48;100.00;69781.59;5203907;28;20513;-68
2022/09/30 11:16:40;;;;;;;2.40;2.30;;;;;;;-141.48;100.00;69781.59;5205225;28;20030;-68
2022/09/30 11:19:22;;;;;;;5.07;2.85;;;;;;;-141.48;100.00;69781.59;5205828;28;20036;-69
2022/09/30 11:22:07;;;;;;;2.08;1.85;;;;;;;-141.48;100.00;69781.59;5206260;28;20029;-68
2022/09/30 11:24:42;;;;;;;3.45;3.05;;;;;;;-141.48;100.00;69781.59;5205484;28;20025;-67
2022/09/30 11:27:48;;;;;;;2.63;2.42;;;;;;;-141.48;100.00;69781.59;5206165;28;20311;-69
2022/09/30 11:30:25;;;;;;;3.10;2.40;;;;;;;-141.48;100.00;69781.59;5205862;28;20026;-67
2022/09/30 11:33:26;;;;;;;4.13;3.50;;;;;;;-141.48;100.00;69781.59;5206384;28;20021;-68
2022/09/30 11:36:12;;;;;;;3.35;3.10;;;;;;;-141.48;100.00;69781.59;5206475;28;20449;-68
2022/09/30 11:39:03;;;;;;;3.13;2.90;;;;;;;-141.48;100.00;69781.59;5207133;28;20041;-68